Time;durP1;ratioP1;P1;durP2;ratioP2;P2;SDS_P1;SDS_P2;PMS_P1;PMS_P2;Temp;Humidity;BMP_temperature;BMP_pressure;BME280_temperature;BME280_humidity;BME280_pressure;Samples;Min_cycle;Max_cycle;Signal;HPM_P1;HPM_P2
2022/05/21 00:00:31;;;;;;;6.90;6.30;;;18.00;99.90;;;;;;4957954;28;20468;-96
2022/05/21 00:02:57;;;;;;;7.00;6.40;;;18.00;99.90;;;;;;4989097;28;20490;-96
2022/05/21 00:05:27;;;;;;;7.17;6.47;;;17.90;99.90;;;;;;5079477;23;20505;-96
2022/05/21 00:08:18;;;;;;;6.70;6.03;;;17.80;99.90;;;;;;4965825;28;20473;-96
2022/05/21 00:10:44;;;;;;;6.43;5.73;;;17.80;99.90;;;;;;4956045;28;21020;-96
2022/05/21 00:13:12;;;;;;;5.80;5.30;;;17.70;99.90;;;;;;5058011;23;20793;-96
2022/05/21 00:18:23;;;;;;;6.30;5.70;;;17.80;99.90;;;;;;4961432;23;20520;-96
2022/05/21 00:20:49;;;;;;;5.47;4.97;;;17.70;99.90;;;;;;4943679;28;20462;-95
2022/05/21 00:23:27;;;;;;;6.13;5.43;;;17.70;99.90;;;;;;4940155;28;20484;-95
2022/05/21 00:28:54;;;;;;;5.53;5.03;;;17.60;99.90;;;;;;5050773;23;20490;-96
2022/05/21 00:31:27;;;;;;;5.93;5.33;;;17.60;99.90;;;;;;4948875;28;20446;-96
2022/05/21 00:34:13;;;;;;;5.73;5.23;;;17.60;99.90;;;;;;4954539;28;20526;-96
2022/05/21 00:36:39;;;;;;;4.97;4.67;;;17.60;99.90;;;;;;4968399;28;20552;-96
2022/05/21 00:39:05;;;;;;;5.50;5.00;;;17.60;99.90;;;;;;4946534;28;20567;-96
2022/05/21 00:41:31;;;;;;;4.17;3.97;;;17.50;99.90;;;;;;4946507;28;20462;-96
2022/05/21 00:44:02;;;;;;;4.80;4.40;;;17.50;99.90;;;;;;4948160;28;20719;-96
2022/05/21 00:46:31;;;;;;;4.20;3.80;;;17.60;99.90;;;;;;4965851;28;20454;-95
2022/05/21 00:49:08;;;;;;;4.27;3.87;;;17.50;99.90;;;;;;4951309;28;20470;-96
2022/05/21 00:51:40;;;;;;;3.80;3.50;;;17.40;99.90;;;;;;4960997;28;20887;-96
2022/05/21 00:54:08;;;;;;;7.77;3.90;;;17.40;99.90;;;;;;4947366;28;20799;-95
2022/05/21 00:56:47;;;;;;;4.17;3.80;;;17.40;99.90;;;;;;4939881;28;21242;-94
2022/05/21 01:02:05;;;;;;;3.70;3.40;;;17.30;99.90;;;;;;4947555;28;20555;-96
2022/05/21 01:07:08;;;;;;;4.37;3.33;;;17.30;99.90;;;;;;5202938;23;21221;-96
2022/05/21 01:09:37;;;;;;;3.50;3.20;;;17.30;99.90;;;;;;4971236;28;20779;-95
2022/05/21 01:12:09;;;;;;;3.77;3.27;;;17.20;99.90;;;;;;4961280;28;20446;-96
2022/05/21 01:14:55;;;;;;;3.40;3.20;;;17.30;99.90;;;;;;4946260;28;21621;-94
2022/05/21 01:17:26;;;;;;;4.23;3.80;;;17.30;99.90;;;;;;4937414;28;20450;-95
2022/05/21 01:20:22;;;;;;;3.60;3.30;;;17.20;99.90;;;;;;4956298;28;20462;-96
2022/05/21 01:22:53;;;;;;;3.63;3.33;;;17.00;99.90;;;;;;4956981;28;20474;-96
2022/05/21 01:25:21;;;;;;;4.03;3.73;;;17.00;99.90;;;;;;4970849;28;20443;-96
2022/05/21 01:27:50;;;;;;;3.83;3.53;;;17.00;99.90;;;;;;4961487;28;20986;-96
2022/05/21 01:30:20;;;;;;;3.70;3.40;;;16.90;99.90;;;;;;4955425;28;20447;-96
2022/05/21 01:32:50;;;;;;;3.93;3.67;;;16.90;99.90;;;;;;4958047;28;20435;-95
2022/05/21 01:40:35;;;;;;;4.10;3.80;;;16.60;99.90;;;;;;5142239;23;20515;-96
2022/05/21 01:45:45;;;;;;;5.73;4.10;;;16.30;99.90;;;;;;4884655;29;21074;-94
2022/05/21 01:48:35;;;;;;;3.73;3.50;;;16.30;99.90;;;;;;4872383;29;20461;-94
2022/05/21 01:51:31;;;;;;;3.63;3.33;;;16.20;99.90;;;;;;4882295;29;20951;-96
2022/05/21 01:54:14;;;;;;;3.53;3.23;;;16.20;99.90;;;;;;4914451;29;20765;-96
2022/05/21 01:56:40;;;;;;;3.80;3.50;;;16.10;99.90;;;;;;4911104;29;21180;-95
2022/05/21 01:59:06;;;;;;;3.07;2.77;;;16.10;99.90;;;;;;4909506;29;20465;-95
2022/05/21 02:01:31;;;;;;;3.43;3.00;;;16.00;99.90;;;;;;4892637;29;20552;-95
2022/05/21 02:04:06;;;;;;;3.87;3.47;;;16.00;99.90;;;;;;4904969;29;20239;-94
2022/05/21 02:06:34;;;;;;;6.47;3.17;;;16.00;99.90;;;;;;4897828;29;20184;-95
2022/05/21 02:09:20;;;;;;;6.67;3.00;;;16.10;99.90;;;;;;4966646;23;20557;-95
2022/05/21 02:11:50;;;;;;;3.20;3.00;;;16.10;99.90;;;;;;4938478;29;20443;-95
2022/05/21 02:14:16;;;;;;;4.40;4.10;;;16.10;99.90;;;;;;4954591;28;20437;-95
2022/05/21 02:16:44;;;;;;;5.00;3.20;;;16.10;99.90;;;;;;4954393;28;20471;-96
2022/05/21 02:19:09;;;;;;;4.10;3.80;;;16.00;99.90;;;;;;4941049;28;20192;-95
2022/05/21 02:21:38;;;;;;;4.17;3.87;;;15.90;99.90;;;;;;4918868;29;21071;-94
2022/05/21 02:24:20;;;;;;;3.77;3.40;;;15.80;99.90;;;;;;4913589;29;20230;-95
2022/05/21 02:26:51;;;;;;;3.90;3.60;;;15.80;99.90;;;;;;4918222;29;20872;-95
2022/05/21 02:29:18;;;;;;;3.50;3.20;;;15.70;99.90;;;;;;4934165;28;20558;-94
2022/05/21 02:31:44;;;;;;;4.83;3.60;;;15.60;99.90;;;;;;4925343;28;20511;-93
2022/05/21 02:34:09;;;;;;;4.77;3.43;;;15.40;99.90;;;;;;4920914;29;20451;-95
2022/05/21 02:39:25;;;;;;;3.53;3.20;;;15.40;99.90;;;;;;4909566;28;21025;-94
2022/05/21 02:41:51;;;;;;;3.00;2.80;;;15.40;99.90;;;;;;4932916;28;21092;-93
2022/05/21 02:44:17;;;;;;;2.77;2.33;;;15.50;99.90;;;;;;4910979;29;20836;-96
2022/05/21 02:47:00;;;;;;;3.33;2.10;;;15.50;99.90;;;;;;4915054;29;20588;-95
2022/05/21 02:49:26;;;;;;;3.10;2.03;;;15.50;99.90;;;;;;4931041;28;20504;-92
2022/05/21 02:51:52;;;;;;;2.40;2.20;;;15.50;99.90;;;;;;4935278;28;20314;-93
2022/05/21 02:54:18;;;;;;;1.77;1.67;;;15.60;99.90;;;;;;4927608;28;20244;-94
2022/05/21 02:56:50;;;;;;;2.07;1.97;;;15.60;99.90;;;;;;4933246;28;20471;-96
2022/05/21 02:59:16;;;;;;;6.07;2.20;;;15.60;99.90;;;;;;4938554;28;20187;-96
2022/05/21 03:01:43;;;;;;;2.20;2.00;;;15.60;99.90;;;;;;4921690;29;20499;-94
2022/05/21 03:04:09;;;;;;;2.40;2.20;;;15.50;99.90;;;;;;4921980;29;20451;-96
2022/05/21 03:06:36;;;;;;;2.30;2.20;;;15.40;99.90;;;;;;4921784;29;20906;-95
2022/05/21 03:11:49;;;;;;;2.70;2.10;;;15.40;99.90;;;;;;4939626;29;20495;-95
2022/05/21 03:14:41;;;;;;;2.00;1.90;;;15.40;99.90;;;;;;5022176;23;20526;-96
2022/05/21 03:17:07;;;;;;;2.00;1.90;;;15.30;99.90;;;;;;4935501;28;20460;-95
2022/05/21 03:19:37;;;;;;;2.40;2.20;;;15.30;99.90;;;;;;4917195;29;20450;-94
2022/05/21 03:22:15;;;;;;;2.43;2.33;;;15.20;99.90;;;;;;4934240;29;20781;-95
2022/05/21 03:24:41;;;;;;;2.50;2.30;;;15.20;99.90;;;;;;4943443;28;20470;-95
2022/05/21 03:27:07;;;;;;;2.67;2.47;;;15.20;99.90;;;;;;4931414;29;20436;-95
2022/05/21 03:29:34;;;;;;;2.50;2.30;;;15.20;99.90;;;;;;4923036;29;20196;-95
2022/05/21 03:32:00;;;;;;;2.90;2.70;;;15.10;99.90;;;;;;4925160;29;20454;-95
2022/05/21 03:34:36;;;;;;;2.70;2.50;;;15.10;99.90;;;;;;4960942;28;20436;-95
2022/05/21 03:37:04;;;;;;;2.93;1.83;;;14.90;99.90;;;;;;4952598;28;20603;-95
2022/05/21 03:39:30;;;;;;;2.30;2.10;;;14.90;99.90;;;;;;4939556;29;20453;-96
2022/05/21 03:41:56;;;;;;;2.60;2.40;;;14.80;99.90;;;;;;4934589;29;20432;-96
2022/05/21 03:44:22;;;;;;;2.00;1.80;;;14.80;99.90;;;;;;4933041;29;20191;-95
2022/05/21 03:46:50;;;;;;;2.43;2.10;;;14.80;99.90;;;;;;4946808;28;20436;-96
2022/05/21 03:49:16;;;;;;;2.37;2.17;;;14.80;99.90;;;;;;4914948;29;20351;-91
2022/05/21 03:51:41;;;;;;;2.37;2.10;;;14.80;99.90;;;;;;4910557;29;20554;-92
2022/05/21 03:54:07;;;;;;;3.10;1.90;;;14.70;99.90;;;;;;4915379;29;20188;-91
2022/05/21 03:56:33;;;;;;;2.60;2.40;;;14.70;99.90;;;;;;4931349;28;20432;-91
2022/05/21 03:58:59;;;;;;;2.97;2.77;;;14.80;99.90;;;;;;4928822;28;20286;-91
2022/05/21 04:01:24;;;;;;;2.80;2.60;;;14.70;99.90;;;;;;4914851;28;20273;-91
2022/05/21 04:03:50;;;;;;;7.10;2.73;;;14.70;99.90;;;;;;4914319;29;20290;-91
2022/05/21 04:06:16;;;;;;;3.27;2.97;;;14.50;99.90;;;;;;4923446;28;20216;-91
2022/05/21 04:08:42;;;;;;;3.43;3.13;;;14.50;99.90;;;;;;4907981;29;21035;-91
2022/05/21 04:11:07;;;;;;;3.40;3.13;;;14.50;99.90;;;;;;4924574;28;20403;-90
2022/05/21 04:13:33;;;;;;;3.40;3.10;;;14.30;99.90;;;;;;4926928;28;20187;-93
2022/05/21 04:15:58;;;;;;;4.33;2.80;;;14.30;99.90;;;;;;4922973;28;20184;-92
2022/05/21 04:18:24;;;;;;;3.00;2.80;;;14.30;99.90;;;;;;4911945;29;20175;-93
2022/05/21 04:20:49;;;;;;;3.07;2.77;;;14.20;99.90;;;;;;4908126;29;23264;-93
2022/05/21 04:23:15;;;;;;;2.40;2.30;;;14.20;99.90;;;;;;4911236;29;20220;-93
2022/05/21 04:25:42;;;;;;;3.27;2.97;;;14.30;99.90;;;;;;4924882;28;20282;-91
2022/05/21 04:28:07;;;;;;;3.37;3.07;;;14.40;99.90;;;;;;4911224;29;20309;-93
2022/05/21 04:30:35;;;;;;;3.30;3.10;;;14.30;99.90;;;;;;4917873;29;20494;-92
2022/05/21 04:33:01;;;;;;;3.13;2.93;;;14.30;99.90;;;;;;4919670;29;20203;-93
2022/05/21 04:38:13;;;;;;;3.90;2.80;;;14.40;99.90;;;;;;4912747;29;20233;-92
2022/05/21 04:40:38;;;;;;;3.30;3.10;;;14.40;99.90;;;;;;4905308;29;20444;-93
2022/05/21 04:43:04;;;;;;;3.23;2.80;;;14.30;99.90;;;;;;4913473;29;20487;-93
2022/05/21 04:45:30;;;;;;;3.27;3.00;;;14.40;99.90;;;;;;4907807;29;22093;-93
2022/05/21 04:47:55;;;;;;;3.53;3.30;;;14.40;99.90;;;;;;4909243;29;20206;-92
2022/05/21 04:50:21;;;;;;;3.17;2.87;;;14.40;99.90;;;;;;4921958;28;20883;-94
2022/05/21 04:52:46;;;;;;;2.67;2.47;;;14.30;99.90;;;;;;4912653;28;20204;-92
2022/05/21 04:55:12;;;;;;;3.60;3.30;;;14.40;99.90;;;;;;4898072;29;20655;-91
2022/05/21 04:57:38;;;;;;;3.53;3.33;;;14.50;99.90;;;;;;4905966;29;20279;-92
2022/05/21 05:00:05;;;;;;;4.43;3.20;;;14.40;99.90;;;;;;4902021;29;20212;-92
2022/05/21 05:02:31;;;;;;;3.67;3.37;;;14.50;99.90;;;;;;4907893;29;20226;-91
2022/05/21 05:04:57;;;;;;;3.50;3.30;;;14.50;99.90;;;;;;4926682;28;20849;-92
2022/05/21 05:07:23;;;;;;;3.27;3.07;;;14.40;99.90;;;;;;4904985;29;20488;-92
2022/05/21 05:09:50;;;;;;;4.00;3.37;;;14.50;99.90;;;;;;4903073;29;21633;-90
2022/05/21 05:12:16;;;;;;;3.07;2.87;;;14.50;99.90;;;;;;4911093;29;20485;-89
2022/05/21 05:14:42;;;;;;;3.67;3.30;;;14.50;99.90;;;;;;4912887;29;20968;-89
2022/05/21 05:17:12;;;;;;;3.50;3.20;;;14.50;99.90;;;;;;4909834;29;20439;-90
2022/05/21 05:19:37;;;;;;;3.17;2.87;;;14.70;99.90;;;;;;4908566;29;20455;-91
2022/05/21 05:22:03;;;;;;;3.20;3.00;;;14.90;99.90;;;;;;4917286;29;20488;-88
2022/05/21 05:24:29;;;;;;;3.23;2.60;;;15.00;99.90;;;;;;4913531;29;20443;-89
2022/05/21 05:26:55;;;;;;;2.97;2.67;;;15.20;99.90;;;;;;4921431;28;20450;-89
2022/05/21 05:29:20;;;;;;;3.70;3.07;;;15.20;99.90;;;;;;4923671;28;20672;-89
2022/05/21 05:31:46;;;;;;;2.83;2.50;;;15.30;99.90;;;;;;4914619;29;20706;-88
2022/05/21 05:34:12;;;;;;;2.50;2.40;;;15.20;99.90;;;;;;4918069;29;20642;-89
2022/05/21 05:36:38;;;;;;;2.80;2.60;;;15.10;99.90;;;;;;4910766;29;20191;-88
2022/05/21 05:39:07;;;;;;;2.57;2.40;;;15.20;99.90;;;;;;4906124;29;20455;-89
2022/05/21 05:41:37;;;;;;;3.70;2.90;;;15.30;99.90;;;;;;4935797;28;20188;-88
2022/05/21 05:44:02;;;;;;;2.53;2.33;;;15.10;99.90;;;;;;4929665;28;20499;-89
2022/05/21 05:46:31;;;;;;;3.60;2.40;;;15.20;99.90;;;;;;4906632;29;20558;-90
2022/05/21 05:48:57;;;;;;;2.73;2.53;;;15.10;99.90;;;;;;4911951;29;20656;-89
2022/05/21 05:51:23;;;;;;;4.60;2.97;;;15.10;99.90;;;;;;4908934;29;20538;-90
2022/05/21 05:53:51;;;;;;;1.93;1.83;;;15.10;99.90;;;;;;4915712;29;21656;-89
2022/05/21 05:56:21;;;;;;;2.13;2.03;;;15.20;99.90;;;;;;4912993;29;20451;-91
2022/05/21 06:01:30;;;;;;;2.70;2.07;;;15.30;99.90;;;;;;4918376;29;20454;-90
2022/05/21 06:03:59;;;;;;;3.03;1.90;;;15.20;99.90;;;;;;4918663;29;20443;-91
2022/05/21 06:06:28;;;;;;;2.23;1.60;;;15.40;99.90;;;;;;4927951;28;20191;-89
2022/05/21 06:08:57;;;;;;;2.57;1.83;;;15.60;99.90;;;;;;4902540;29;20502;-88
2022/05/21 06:11:22;;;;;;;2.03;1.30;;;15.80;99.90;;;;;;4927565;28;21164;-89
2022/05/21 06:13:51;;;;;;;2.30;1.50;;;15.70;99.60;;;;;;4912390;29;20487;-89
2022/05/21 06:16:37;;;;;;;1.70;1.53;;;15.80;99.50;;;;;;4914659;29;20195;-89
2022/05/21 06:19:17;;;;;;;1.13;1.13;;;15.90;99.90;;;;;;4928088;28;20527;-89
2022/05/21 06:21:45;;;;;;;1.60;1.50;;;15.90;98.50;;;;;;4924825;28;20442;-90
2022/05/21 06:24:11;;;;;;;2.80;1.43;;;16.00;98.60;;;;;;4917734;29;20475;-89
2022/05/21 06:26:36;;;;;;;1.40;1.30;;;15.80;97.00;;;;;;4928762;28;20440;-89
2022/05/21 06:29:17;;;;;;;1.17;0.93;;;15.80;96.90;;;;;;4923644;29;20545;-88
2022/05/21 06:31:43;;;;;;;1.33;1.20;;;15.80;95.60;;;;;;4938637;28;21692;-89
2022/05/21 06:34:39;;;;;;;1.93;1.10;;;15.80;96.20;;;;;;4941091;28;20538;-91
2022/05/21 06:37:14;;;;;;;1.10;1.10;;;15.90;95.90;;;;;;4937607;28;20190;-90
2022/05/21 06:39:43;;;;;;;0.90;0.90;;;16.10;95.80;;;;;;4918355;29;20458;-89
2022/05/21 06:42:09;;;;;;;1.30;1.00;;;16.10;94.50;;;;;;4940696;28;20447;-89
2022/05/21 06:44:35;;;;;;;1.33;1.23;;;16.10;94.80;;;;;;4916240;29;20456;-89
2022/05/21 06:47:12;;;;;;;1.10;0.90;;;16.10;95.20;;;;;;4918468;29;20443;-90
2022/05/21 06:49:38;;;;;;;1.57;1.07;;;16.20;95.70;;;;;;4926463;29;20918;-89
2022/05/21 06:52:06;;;;;;;1.20;1.10;;;16.40;95.30;;;;;;4936050;28;20180;-90
2022/05/21 06:54:34;;;;;;;1.63;0.93;;;16.50;94.70;;;;;;4922266;29;20279;-89
2022/05/21 06:57:00;;;;;;;1.20;1.07;;;16.50;95.00;;;;;;4927851;29;20450;-90
2022/05/21 06:59:28;;;;;;;1.80;1.00;;;16.80;95.50;;;;;;4928290;29;20431;-89
2022/05/21 07:01:56;;;;;;;1.83;1.10;;;16.50;94.60;;;;;;4917346;29;20184;-89
2022/05/21 07:07:32;;;;;;;1.63;1.03;;;16.50;94.80;;;;;;4926364;29;20446;-90
2022/05/21 07:09:57;;;;;;;2.13;1.00;;;16.80;94.70;;;;;;4920845;29;20945;-89
2022/05/21 07:12:38;;;;;;;3.03;1.20;;;16.90;94.10;;;;;;4919164;29;20475;-89
2022/05/21 07:15:05;;;;;;;1.10;1.00;;;16.90;94.90;;;;;;4914030;29;21429;-90
2022/05/21 07:17:31;;;;;;;1.20;1.10;;;17.00;94.90;;;;;;4903090;29;20444;-90
2022/05/21 07:20:02;;;;;;;0.93;0.93;;;16.90;94.80;;;;;;4931663;28;20447;-90
2022/05/21 07:22:28;;;;;;;1.17;0.80;;;17.20;94.30;;;;;;4932678;28;21029;-88
2022/05/21 07:24:55;;;;;;;1.50;1.40;;;17.40;94.40;;;;;;4909473;29;20443;-88
2022/05/21 07:27:23;;;;;;;4.00;1.33;;;17.40;94.50;;;;;;4910477;29;20192;-88
2022/05/21 07:29:49;;;;;;;3.87;1.80;;;17.40;94.50;;;;;;4914526;28;20444;-90
2022/05/21 07:32:23;;;;;;;1.23;0.97;;;17.40;94.20;;;;;;4903665;29;20471;-91
2022/05/21 07:35:09;;;;;;;0.80;0.80;;;17.10;94.20;;;;;;4902229;29;20460;-91
2022/05/21 07:37:38;;;;;;;1.57;0.80;;;17.30;93.70;;;;;;4900310;29;20451;-91
2022/05/21 07:40:13;;;;;;;1.53;1.00;;;17.30;93.70;;;;;;4926121;28;20451;-91
2022/05/21 07:42:40;;;;;;;2.50;2.07;;;17.10;94.20;;;;;;4920786;28;20451;-89
2022/05/21 07:45:10;;;;;;;1.47;1.30;;;17.10;94.60;;;;;;4899691;29;20558;-89
2022/05/21 07:47:36;;;;;;;0.90;0.90;;;17.20;95.20;;;;;;4899613;29;20444;-88
2022/05/21 07:50:02;;;;;;;2.30;1.00;;;17.30;93.80;;;;;;4914879;29;20435;-89
2022/05/21 07:52:29;;;;;;;1.50;1.40;;;17.40;94.70;;;;;;4944218;28;20215;-90
2022/05/21 07:54:56;;;;;;;1.50;1.00;;;17.70;96.50;;;;;;4921539;29;20455;-89
2022/05/21 07:57:22;;;;;;;1.00;1.00;;;17.90;94.90;;;;;;4933903;28;20447;-91
2022/05/21 07:59:53;;;;;;;1.73;1.00;;;17.80;94.00;;;;;;4915075;29;20451;-88
2022/05/21 08:02:20;;;;;;;1.00;0.90;;;17.60;93.50;;;;;;4930775;28;20456;-87
2022/05/21 08:04:47;;;;;;;1.03;0.93;;;17.70;93.70;;;;;;4917015;29;20523;-87
2022/05/21 08:07:13;;;;;;;1.30;1.07;;;18.20;93.20;;;;;;4932196;28;20470;-87
2022/05/21 08:09:39;;;;;;;1.20;1.03;;;17.80;93.30;;;;;;4916306;29;20572;-86
2022/05/21 08:12:07;;;;;;;0.60;0.60;;;17.80;93.50;;;;;;4933249;28;20484;-87
2022/05/21 08:14:33;;;;;;;1.03;0.93;;;18.00;93.20;;;;;;4925980;29;20287;-87
2022/05/21 08:16:59;;;;;;;0.50;0.50;;;18.20;91.80;;;;;;4929950;28;20499;-88
2022/05/21 08:19:25;;;;;;;1.80;0.80;;;18.40;91.70;;;;;;4927048;29;20202;-88
2022/05/21 08:21:53;;;;;;;0.90;0.80;;;19.00;92.50;;;;;;4922697;28;20945;-87
2022/05/21 08:27:17;;;;;;;1.80;0.60;;;19.10;91.70;;;;;;4921336;28;20463;-87
2022/05/21 08:29:47;;;;;;;0.70;0.70;;;18.70;91.90;;;;;;4936212;28;20534;-86
2022/05/21 08:32:17;;;;;;;0.73;0.70;;;18.70;91.00;;;;;;4942387;28;20471;-87
2022/05/21 08:34:43;;;;;;;1.83;0.70;;;18.30;91.10;;;;;;4918373;29;20451;-88
2022/05/21 08:37:08;;;;;;;1.00;0.80;;;18.30;91.40;;;;;;4926590;29;20440;-87
2022/05/21 08:39:39;;;;;;;1.90;0.80;;;18.60;91.50;;;;;;4915792;29;20207;-87
2022/05/21 08:42:13;;;;;;;1.40;0.80;;;18.70;92.30;;;;;;4937118;28;20271;-88
2022/05/21 08:44:45;;;;;;;0.90;0.70;;;19.00;92.50;;;;;;4929085;28;20478;-88
2022/05/21 08:47:20;;;;;;;1.10;0.90;;;19.00;91.00;;;;;;4933402;28;20456;-87
2022/05/21 08:50:04;;;;;;;1.43;0.90;;;18.90;90.40;;;;;;4937467;28;20807;-88
2022/05/21 08:52:43;;;;;;;0.87;0.60;;;19.00;90.70;;;;;;4924602;29;20491;-85
2022/05/21 08:55:15;;;;;;;0.73;0.57;;;18.90;90.10;;;;;;4917455;29;20546;-86
2022/05/21 08:57:57;;;;;;;0.57;0.57;;;18.80;90.60;;;;;;4932695;28;20526;-88
2022/05/21 09:00:26;;;;;;;0.90;0.60;;;18.70;90.30;;;;;;4918064;29;21216;-85
2022/05/21 09:02:54;;;;;;;0.90;0.80;;;18.70;90.20;;;;;;4918242;29;20440;-86
2022/05/21 09:05:22;;;;;;;1.07;0.73;;;19.00;90.50;;;;;;4915395;29;20480;-86
2022/05/21 09:08:17;;;;;;;0.73;0.70;;;18.80;90.30;;;;;;4921900;29;20447;-86
2022/05/21 09:11:01;;;;;;;1.20;0.97;;;19.00;90.20;;;;;;4942640;28;21060;-84
2022/05/21 09:14:10;;;;;;;1.67;0.53;;;19.30;90.30;;;;;;4932282;28;20594;-89
2022/05/21 09:16:56;;;;;;;1.03;0.70;;;18.90;89.50;;;;;;4927748;28;20448;-88
2022/05/21 09:19:33;;;;;;;1.07;0.97;;;19.10;90.30;;;;;;4918293;29;20443;-89
2022/05/21 09:22:10;;;;;;;0.70;0.53;;;19.20;90.20;;;;;;4915421;29;20435;-89
2022/05/21 09:24:42;;;;;;;0.60;0.60;;;19.50;91.00;;;;;;4933339;28;21082;-89
2022/05/21 09:27:28;;;;;;;1.10;1.00;;;20.10;90.10;;;;;;4930868;28;20444;-88
2022/05/21 09:30:13;;;;;;;0.80;0.80;;;20.20;88.80;;;;;;4931229;28;20450;-93
2022/05/21 09:32:40;;;;;;;0.63;0.63;;;19.50;88.30;;;;;;4940026;28;20479;-91
2022/05/21 09:35:16;;;;;;;2.10;0.60;;;19.70;89.40;;;;;;4924690;29;20857;-87
2022/05/21 09:37:43;;;;;;;1.10;1.00;;;19.70;91.00;;;;;;4934884;28;20878;-87
2022/05/21 09:40:23;;;;;;;0.60;0.60;;;19.80;88.40;;;;;;4918895;29;20448;-86
2022/05/21 09:45:36;;;;;;;0.77;0.67;;;20.30;85.10;;;;;;4920088;29;21071;-83
2022/05/21 09:48:05;;;;;;;0.90;0.87;;;20.10;85.80;;;;;;4917250;29;20528;-86
2022/05/21 09:51:04;;;;;;;1.47;0.77;;;19.90;85.70;;;;;;4929936;28;20470;-87
2022/05/21 09:53:39;;;;;;;1.00;0.80;;;20.30;83.20;;;;;;4888154;28;20490;-86
2022/05/21 09:56:24;;;;;;;0.60;0.60;;;20.50;86.50;;;;;;4939985;28;20443;-87
2022/05/21 09:59:06;;;;;;;0.87;0.60;;;20.90;84.50;;;;;;4938921;28;20444;-87
2022/05/21 10:01:48;;;;;;;1.30;0.73;;;20.80;81.60;;;;;;4920423;28;20447;-87
2022/05/21 10:04:40;;;;;;;1.43;0.70;;;20.60;81.00;;;;;;4916845;29;20992;-91
2022/05/21 10:13:32;;;;;;;0.80;0.80;;;21.00;79.30;;;;;;4925691;29;21052;-93
2022/05/21 10:16:35;;;;;;;0.60;0.53;;;20.90;79.40;;;;;;4922953;29;20483;-95
2022/05/21 10:19:38;;;;;;;0.70;0.70;;;20.70;81.00;;;;;;4937441;28;20447;-95
2022/05/21 10:22:38;;;;;;;0.60;0.60;;;20.80;81.10;;;;;;4923343;29;20463;-93
2022/05/21 10:25:13;;;;;;;1.50;0.60;;;21.10;83.00;;;;;;4927443;29;20443;-85
2022/05/21 10:28:04;;;;;;;0.93;0.70;;;21.70;80.40;;;;;;4927585;29;20422;-89
2022/05/21 10:30:49;;;;;;;0.80;0.60;;;21.50;81.90;;;;;;4917150;29;20439;-88
2022/05/21 10:33:40;;;;;;;1.83;0.90;;;21.20;80.60;;;;;;4941483;28;20489;-90
2022/05/21 10:36:32;;;;;;;0.60;0.60;;;21.40;78.60;;;;;;4889055;29;21169;-89
2022/05/21 10:39:15;;;;;;;1.10;0.93;;;21.30;78.20;;;;;;4945535;28;20523;-90
2022/05/21 10:42:05;;;;;;;0.90;0.60;;;21.50;77.80;;;;;;4943154;28;20795;-91
2022/05/21 10:44:58;;;;;;;0.80;0.70;;;22.00;79.30;;;;;;4922736;29;20561;-90
2022/05/21 10:47:49;;;;;;;1.23;0.73;;;21.90;76.90;;;;;;4920155;29;20447;-89
2022/05/21 10:51:18;;;;;;;1.90;0.87;;;21.50;79.00;;;;;;4935839;28;20447;-91
2022/05/21 10:54:17;;;;;;;0.40;0.40;;;22.20;82.30;;;;;;4880292;29;20514;-93
2022/05/21 10:56:53;;;;;;;2.00;0.87;;;22.60;81.60;;;;;;4943058;28;20451;-92
2022/05/21 10:59:44;;;;;;;0.70;0.50;;;23.10;78.00;;;;;;4923102;29;20820;-90
2022/05/21 11:02:41;;;;;;;0.70;0.67;;;23.30;78.50;;;;;;4942536;28;20458;-91
2022/05/21 11:05:52;;;;;;;0.80;0.70;;;22.90;78.40;;;;;;4942025;28;20950;-91
2022/05/21 11:08:38;;;;;;;0.93;0.80;;;22.70;75.00;;;;;;4934094;28;20446;-91
2022/05/21 11:11:42;;;;;;;1.27;0.70;;;22.40;76.60;;;;;;4905712;29;20435;-95
2022/05/21 11:14:29;;;;;;;0.60;0.60;;;22.80;75.90;;;;;;4900957;29;20526;-94
2022/05/21 11:17:22;;;;;;;0.90;0.80;;;22.60;78.10;;;;;;4930309;28;20448;-92
2022/05/21 11:20:02;;;;;;;0.90;0.57;;;22.90;74.50;;;;;;4947700;28;20502;-92
2022/05/21 11:23:02;;;;;;;1.27;0.70;;;23.40;72.30;;;;;;4943003;28;20439;-93
2022/05/21 11:25:34;;;;;;;0.80;0.80;;;23.10;74.00;;;;;;4941027;28;20444;-92
2022/05/21 11:28:26;;;;;;;0.97;0.67;;;22.60;74.00;;;;;;4925757;29;20977;-92
2022/05/21 11:31:01;;;;;;;1.13;0.77;;;22.80;79.10;;;;;;4941872;28;20530;-93
2022/05/21 11:39:06;;;;;;;1.50;0.90;;;24.10;77.30;;;;;;4929414;29;20459;-94
2022/05/21 11:42:07;;;;;;;2.20;1.20;;;24.50;81.70;;;;;;4942967;28;20498;-94
2022/05/21 11:45:01;;;;;;;1.70;0.80;;;24.40;77.10;;;;;;4878380;29;20454;-93
2022/05/21 11:47:27;;;;;;;0.70;0.70;;;24.60;79.60;;;;;;4945393;28;20428;-92
2022/05/21 11:49:55;;;;;;;1.70;0.90;;;24.70;76.10;;;;;;4945123;28;20478;-93
2022/05/21 11:52:27;;;;;;;0.70;0.70;;;24.50;75.40;;;;;;4943449;28;20263;-93
2022/05/21 11:55:16;;;;;;;0.77;0.77;;;24.30;76.00;;;;;;4941136;28;20437;-94
2022/05/21 11:57:48;;;;;;;2.20;0.90;;;23.50;73.30;;;;;;4923714;29;20448;-93
2022/05/21 12:00:25;;;;;;;2.60;0.80;;;23.80;76.10;;;;;;4925800;29;20447;-93
2022/05/21 12:02:54;;;;;;;0.93;0.83;;;24.30;76.60;;;;;;4944041;28;20566;-94
2022/05/21 12:05:38;;;;;;;2.00;0.90;;;24.00;75.20;;;;;;4932715;28;20550;-92
2022/05/21 12:08:25;;;;;;;1.50;1.07;;;24.50;79.90;;;;;;4935762;28;20451;-92
2022/05/21 12:11:16;;;;;;;4.47;1.20;;;25.10;77.80;;;;;;4910328;29;20464;-93
2022/05/21 12:14:12;;;;;;;0.77;0.63;;;25.30;77.00;;;;;;4936144;28;21093;-91
2022/05/21 12:16:38;;;;;;;0.90;0.70;;;24.20;72.80;;;;;;4924836;29;21759;-94
2022/05/21 12:19:58;;;;;;;1.33;0.97;;;24.10;75.10;;;;;;4943229;28;20448;-91
2022/05/21 12:22:53;;;;;;;0.80;0.80;;;24.40;79.40;;;;;;4863400;29;20452;-92
2022/05/21 12:25:44;;;;;;;0.80;0.73;;;24.90;77.40;;;;;;4925435;29;20448;-91
2022/05/21 12:28:11;;;;;;;1.27;0.90;;;25.50;75.70;;;;;;4946482;28;20455;-92
2022/05/21 12:31:00;;;;;;;0.93;0.93;;;25.80;75.90;;;;;;4928013;29;20492;-91
2022/05/21 12:33:51;;;;;;;0.83;0.83;;;26.10;77.70;;;;;;4917896;29;21027;-90
2022/05/21 12:37:04;;;;;;;1.93;1.10;;;25.30;72.30;;;;;;4922635;29;20444;-91
2022/05/21 12:39:53;;;;;;;4.00;0.97;;;24.90;75.30;;;;;;4906956;29;20490;-91
2022/05/21 12:42:43;;;;;;;0.90;0.90;;;24.30;77.00;;;;;;4934562;29;20979;-89
2022/05/21 12:45:14;;;;;;;1.87;0.80;;;24.40;77.30;;;;;;4928450;29;20772;-89
2022/05/21 12:47:44;;;;;;;2.07;1.20;;;24.30;76.50;;;;;;4942323;28;20443;-91
2022/05/21 12:50:19;;;;;;;2.53;0.90;;;24.40;75.70;;;;;;4925361;29;20550;-93
2022/05/21 12:52:50;;;;;;;2.33;1.00;;;25.00;81.00;;;;;;4929169;29;20526;-92
2022/05/21 12:55:16;;;;;;;2.00;1.30;;;25.20;78.40;;;;;;4925119;29;20447;-92
2022/05/21 12:57:42;;;;;;;1.27;1.00;;;25.90;78.50;;;;;;4936730;28;20506;-93
2022/05/21 13:00:08;;;;;;;1.30;0.90;;;25.20;69.60;;;;;;4942725;28;20183;-93
2022/05/21 13:02:46;;;;;;;3.07;1.00;;;24.50;77.20;;;;;;4927242;29;21571;-88
2022/05/21 13:05:23;;;;;;;3.27;1.10;;;24.30;73.50;;;;;;4920991;29;20197;-89
2022/05/21 13:07:51;;;;;;;3.60;1.60;;;24.40;74.60;;;;;;4942546;28;20793;-87
2022/05/21 13:10:25;;;;;;;2.30;1.10;;;24.80;72.30;;;;;;4944439;28;20446;-87
2022/05/21 13:13:01;;;;;;;1.10;0.97;;;25.20;73.60;;;;;;4923196;29;20506;-91
2022/05/21 13:15:34;;;;;;;2.60;1.13;;;25.30;70.50;;;;;;4936411;28;21109;-89
2022/05/21 13:18:22;;;;;;;2.43;1.10;;;26.10;69.50;;;;;;4937672;28;20823;-94
2022/05/21 13:21:03;;;;;;;1.53;1.10;;;25.60;71.90;;;;;;4927739;29;20450;-95
2022/05/21 13:23:41;;;;;;;1.50;1.17;;;26.20;73.00;;;;;;4939280;28;20454;-96
2022/05/21 13:26:34;;;;;;;2.00;1.00;;;26.80;74.10;;;;;;4939715;28;20467;-90
2022/05/21 13:29:25;;;;;;;1.10;0.97;;;26.60;67.40;;;;;;4924690;28;20436;-92
2022/05/21 13:32:28;;;;;;;0.70;0.60;;;25.80;67.10;;;;;;4934398;28;20945;-90
2022/05/21 13:34:59;;;;;;;1.80;0.73;;;26.90;70.20;;;;;;4918521;29;20586;-90
2022/05/21 13:37:31;;;;;;;2.70;1.00;;;27.40;70.10;;;;;;4927771;28;21041;-94
2022/05/21 13:40:08;;;;;;;1.23;1.10;;;27.80;63.90;;;;;;4945795;28;20439;-95
2022/05/21 13:42:36;;;;;;;3.00;1.40;;;27.20;63.80;;;;;;4924563;29;20553;-92
2022/05/21 13:45:30;;;;;;;2.07;1.00;;;26.50;67.30;;;;;;4930110;29;20443;-95
2022/05/21 13:48:06;;;;;;;1.40;0.93;;;26.00;61.60;;;;;;4934864;29;20431;-94
2022/05/21 13:50:32;;;;;;;1.57;1.10;;;25.80;61.30;;;;;;4936095;29;20443;-96
2022/05/21 13:55:33;;;;;;;0.93;0.83;;;28.80;59.80;;;;;;5341383;23;20485;-94
2022/05/21 13:58:29;;;;;;;1.57;1.30;;;30.90;56.80;;;;;;4936876;29;20507;-88
2022/05/21 14:00:55;;;;;;;1.33;0.83;;;33.20;51.90;;;;;;4928102;29;20181;-95
2022/05/21 14:03:43;;;;;;;0.97;0.90;;;30.60;51.60;;;;;;4910078;29;20473;-93
2022/05/21 14:06:19;;;;;;;0.70;0.70;;;29.00;53.00;;;;;;4910321;29;20428;-90
2022/05/21 14:08:56;;;;;;;2.03;0.90;;;27.30;53.10;;;;;;4912592;29;20448;-95
2022/05/21 14:11:23;;;;;;;1.60;0.93;;;28.20;55.00;;;;;;4906518;29;20451;-93
2022/05/21 14:14:01;;;;;;;1.60;0.73;;;29.30;52.80;;;;;;4902745;29;20816;-93
2022/05/21 14:16:34;;;;;;;0.87;0.73;;;31.90;51.60;;;;;;4899625;29;21483;-93